sensor_id;sensor_type;location;lat;lon;timestamp;P1;durP1;ratioP1;P2;durP2;ratioP2
39410;SDS011;26579;43.238;23.124;2023-03-01T00:00:09;20.23;;;3.97;;
39410;SDS011;26579;43.238;23.124;2023-03-01T00:02:36;5.97;;;3.05;;
39410;SDS011;26579;43.238;23.124;2023-03-01T00:05:03;11.88;;;3.25;;
39410;SDS011;26579;43.238;23.124;2023-03-01T00:07:29;6.50;;;3.08;;
39410;SDS011;26579;43.238;23.124;2023-03-01T00:09:54;6.32;;;3.50;;
39410;SDS011;26579;43.238;23.124;2023-03-01T00:12:20;21.10;;;3.85;;
39410;SDS011;26579;43.238;23.124;2023-03-01T00:14:46;7.65;;;3.80;;
39410;SDS011;26579;43.238;23.124;2023-03-01T00:17:12;9.10;;;3.83;;
39410;SDS011;26579;43.238;23.124;2023-03-01T00:19:38;5.80;;;2.88;;
39410;SDS011;26579;43.238;23.124;2023-03-01T00:22:04;8.95;;;3.08;;
39410;SDS011;26579;43.238;23.124;2023-03-01T00:24:30;6.13;;;2.85;;
39410;SDS011;26579;43.238;23.124;2023-03-01T00:26:56;5.20;;;2.88;;
39410;SDS011;26579;43.238;23.124;2023-03-01T00:29:24;6.22;;;2.55;;
39410;SDS011;26579;43.238;23.124;2023-03-01T00:31:50;6.68;;;3.20;;
39410;SDS011;26579;43.238;23.124;2023-03-01T00:34:16;7.22;;;2.92;;
39410;SDS011;26579;43.238;23.124;2023-03-01T00:36:42;7.07;;;3.17;;
39410;SDS011;26579;43.238;23.124;2023-03-01T00:39:10;7.50;;;2.80;;
39410;SDS011;26579;43.238;23.124;2023-03-01T00:41:37;11.63;;;2.90;;
39410;SDS011;26579;43.238;23.124;2023-03-01T00:44:03;7.38;;;3.03;;
39410;SDS011;26579;43.238;23.124;2023-03-01T00:46:29;12.60;;;3.53;;
39410;SDS011;26579;43.238;23.124;2023-03-01T00:48:55;20.70;;;4.68;;
39410;SDS011;26579;43.238;23.124;2023-03-01T00:51:25;6.03;;;3.38;;
39410;SDS011;26579;43.238;23.124;2023-03-01T00:53:53;6.80;;;3.72;;
39410;SDS011;26579;43.238;23.124;2023-03-01T00:56:20;25.23;;;4.45;;
39410;SDS011;26579;43.238;23.124;2023-03-01T00:58:46;7.65;;;3.42;;
39410;SDS011;26579;43.238;23.124;2023-03-01T01:01:13;41.38;;;3.70;;
39410;SDS011;26579;43.238;23.124;2023-03-01T01:03:39;16.08;;;3.63;;
39410;SDS011;26579;43.238;23.124;2023-03-01T01:06:05;30.33;;;3.65;;
39410;SDS011;26579;43.238;23.124;2023-03-01T01:08:31;6.95;;;3.47;;
39410;SDS011;26579;43.238;23.124;2023-03-01T01:10:56;18.88;;;3.70;;
39410;SDS011;26579;43.238;23.124;2023-03-01T01:13:22;8.02;;;3.03;;
39410;SDS011;26579;43.238;23.124;2023-03-01T01:15:48;25.20;;;4.05;;
39410;SDS011;26579;43.238;23.124;2023-03-01T01:18:14;14.23;;;3.15;;
39410;SDS011;26579;43.238;23.124;2023-03-01T01:20:40;16.15;;;3.33;;
39410;SDS011;26579;43.238;23.124;2023-03-01T01:23:06;10.07;;;3.53;;
39410;SDS011;26579;43.238;23.124;2023-03-01T01:25:33;11.55;;;3.05;;
39410;SDS011;26579;43.238;23.124;2023-03-01T01:28:00;5.57;;;2.50;;
39410;SDS011;26579;43.238;23.124;2023-03-01T01:30:26;5.30;;;2.78;;
39410;SDS011;26579;43.238;23.124;2023-03-01T01:32:52;4.60;;;2.78;;
39410;SDS011;26579;43.238;23.124;2023-03-01T01:35:18;4.53;;;2.47;;
39410;SDS011;26579;43.238;23.124;2023-03-01T01:37:44;4.93;;;2.50;;
39410;SDS011;26579;43.238;23.124;2023-03-01T01:40:09;4.47;;;2.22;;
39410;SDS011;26579;43.238;23.124;2023-03-01T01:42:35;4.63;;;2.17;;
39410;SDS011;26579;43.238;23.124;2023-03-01T01:47:55;4.43;;;2.55;;
39410;SDS011;26579;43.238;23.124;2023-03-01T01:50:25;5.05;;;2.05;;
39410;SDS011;26579;43.238;23.124;2023-03-01T01:52:52;4.45;;;2.20;;
39410;SDS011;26579;43.238;23.124;2023-03-01T01:55:20;4.45;;;2.33;;
39410;SDS011;26579;43.238;23.124;2023-03-01T01:57:51;4.70;;;2.50;;
39410;SDS011;26579;43.238;23.124;2023-03-01T02:00:21;4.63;;;2.20;;
39410;SDS011;26579;43.238;23.124;2023-03-01T02:02:50;4.95;;;2.42;;
39410;SDS011;26579;43.238;23.124;2023-03-01T02:07:58;4.03;;;2.10;;
39410;SDS011;26579;43.238;23.124;2023-03-01T02:10:24;6.53;;;2.53;;
39410;SDS011;26579;43.238;23.124;2023-03-01T02:12:52;3.30;;;1.90;;
39410;SDS011;26579;43.238;23.124;2023-03-01T02:15:20;3.85;;;2.22;;
39410;SDS011;26579;43.238;23.124;2023-03-01T02:17:46;3.63;;;2.22;;
39410;SDS011;26579;43.238;23.124;2023-03-01T02:22:57;4.78;;;2.50;;
39410;SDS011;26579;43.238;23.124;2023-03-01T02:26:06;4.47;;;2.05;;
39410;SDS011;26579;43.238;23.124;2023-03-01T02:30:55;3.15;;;1.75;;
39410;SDS011;26579;43.238;23.124;2023-03-01T02:33:20;4.30;;;1.92;;
39410;SDS011;26579;43.238;23.124;2023-03-01T02:35:46;4.03;;;2.15;;
39410;SDS011;26579;43.238;23.124;2023-03-01T02:38:12;3.95;;;1.90;;
39410;SDS011;26579;43.238;23.124;2023-03-01T02:40:37;5.22;;;2.40;;
39410;SDS011;26579;43.238;23.124;2023-03-01T02:43:06;3.35;;;1.67;;
39410;SDS011;26579;43.238;23.124;2023-03-01T02:45:35;4.38;;;2.08;;
39410;SDS011;26579;43.238;23.124;2023-03-01T02:48:01;3.80;;;2.10;;
39410;SDS011;26579;43.238;23.124;2023-03-01T02:52:57;4.93;;;2.78;;
39410;SDS011;26579;43.238;23.124;2023-03-01T02:55:26;4.97;;;2.90;;
39410;SDS011;26579;43.238;23.124;2023-03-01T02:57:53;6.25;;;2.97;;
39410;SDS011;26579;43.238;23.124;2023-03-01T03:00:22;5.18;;;2.67;;
39410;SDS011;26579;43.238;23.124;2023-03-01T03:03:00;10.43;;;7.82;;
39410;SDS011;26579;43.238;23.124;2023-03-01T03:05:27;6.15;;;3.33;;
39410;SDS011;26579;43.238;23.124;2023-03-01T03:07:57;5.38;;;3.10;;
39410;SDS011;26579;43.238;23.124;2023-03-01T03:10:26;4.75;;;2.58;;
39410;SDS011;26579;43.238;23.124;2023-03-01T03:12:55;4.70;;;2.20;;
39410;SDS011;26579;43.238;23.124;2023-03-01T03:15:23;4.15;;;1.98;;
39410;SDS011;26579;43.238;23.124;2023-03-01T03:17:50;4.10;;;2.13;;
39410;SDS011;26579;43.238;23.124;2023-03-01T03:20:17;4.30;;;2.60;;
39410;SDS011;26579;43.238;23.124;2023-03-01T03:22:46;5.47;;;2.45;;
39410;SDS011;26579;43.238;23.124;2023-03-01T03:25:13;4.53;;;2.22;;
39410;SDS011;26579;43.238;23.124;2023-03-01T03:27:39;4.90;;;2.20;;
39410;SDS011;26579;43.238;23.124;2023-03-01T03:30:07;4.55;;;2.35;;
39410;SDS011;26579;43.238;23.124;2023-03-01T03:32:35;4.13;;;2.40;;
39410;SDS011;26579;43.238;23.124;2023-03-01T03:35:02;3.58;;;2.00;;
39410;SDS011;26579;43.238;23.124;2023-03-01T03:37:31;4.85;;;2.10;;
39410;SDS011;26579;43.238;23.124;2023-03-01T03:39:57;5.63;;;2.60;;
39410;SDS011;26579;43.238;23.124;2023-03-01T03:42:24;4.22;;;2.15;;
39410;SDS011;26579;43.238;23.124;2023-03-01T03:44:50;5.47;;;2.67;;
39410;SDS011;26579;43.238;23.124;2023-03-01T03:47:15;4.68;;;2.50;;
39410;SDS011;26579;43.238;23.124;2023-03-01T03:49:41;4.03;;;2.03;;
39410;SDS011;26579;43.238;23.124;2023-03-01T03:52:07;5.97;;;2.10;;
39410;SDS011;26579;43.238;23.124;2023-03-01T03:54:32;4.57;;;2.40;;
39410;SDS011;26579;43.238;23.124;2023-03-01T03:56:58;3.92;;;2.42;;
39410;SDS011;26579;43.238;23.124;2023-03-01T03:59:24;4.50;;;2.17;;
39410;SDS011;26579;43.238;23.124;2023-03-01T04:01:49;3.80;;;1.90;;
39410;SDS011;26579;43.238;23.124;2023-03-01T04:04:15;3.25;;;1.92;;
39410;SDS011;26579;43.238;23.124;2023-03-01T04:06:41;4.63;;;2.45;;
39410;SDS011;26579;43.238;23.124;2023-03-01T04:09:06;7.68;;;4.43;;
39410;SDS011;26579;43.238;23.124;2023-03-01T04:11:32;8.57;;;4.38;;
39410;SDS011;26579;43.238;23.124;2023-03-01T04:13:58;6.10;;;4.05;;
39410;SDS011;26579;43.238;23.124;2023-03-01T04:16:24;5.82;;;3.65;;
39410;SDS011;26579;43.238;23.124;2023-03-01T04:18:50;5.38;;;2.60;;
39410;SDS011;26579;43.238;23.124;2023-03-01T04:21:16;4.28;;;2.25;;
39410;SDS011;26579;43.238;23.124;2023-03-01T04:23:41;5.38;;;2.17;;
39410;SDS011;26579;43.238;23.124;2023-03-01T04:26:07;3.20;;;1.80;;
39410;SDS011;26579;43.238;23.124;2023-03-01T04:28:34;4.93;;;2.88;;
39410;SDS011;26579;43.238;23.124;2023-03-01T04:31:03;4.45;;;2.67;;
39410;SDS011;26579;43.238;23.124;2023-03-01T04:33:30;4.30;;;2.58;;
39410;SDS011;26579;43.238;23.124;2023-03-01T04:35:56;6.30;;;3.25;;
39410;SDS011;26579;43.238;23.124;2023-03-01T04:38:22;4.15;;;2.35;;
39410;SDS011;26579;43.238;23.124;2023-03-01T04:40:47;4.97;;;3.17;;
39410;SDS011;26579;43.238;23.124;2023-03-01T04:43:13;4.38;;;2.72;;
39410;SDS011;26579;43.238;23.124;2023-03-01T04:45:39;3.38;;;2.08;;
39410;SDS011;26579;43.238;23.124;2023-03-01T04:48:04;2.78;;;1.52;;
39410;SDS011;26579;43.238;23.124;2023-03-01T04:50:31;3.47;;;1.75;;
39410;SDS011;26579;43.238;23.124;2023-03-01T04:52:57;5.90;;;2.90;;
39410;SDS011;26579;43.238;23.124;2023-03-01T04:55:23;15.18;;;8.23;;
39410;SDS011;26579;43.238;23.124;2023-03-01T04:57:48;3.80;;;2.30;;
39410;SDS011;26579;43.238;23.124;2023-03-01T05:00:15;3.75;;;1.98;;
39410;SDS011;26579;43.238;23.124;2023-03-01T05:02:41;3.72;;;1.77;;
39410;SDS011;26579;43.238;23.124;2023-03-01T05:05:06;3.20;;;1.95;;
39410;SDS011;26579;43.238;23.124;2023-03-01T05:07:32;2.67;;;1.83;;
39410;SDS011;26579;43.238;23.124;2023-03-01T05:09:57;4.68;;;2.40;;
39410;SDS011;26579;43.238;23.124;2023-03-01T05:12:23;2.83;;;1.77;;
39410;SDS011;26579;43.238;23.124;2023-03-01T05:14:49;5.28;;;2.50;;
39410;SDS011;26579;43.238;23.124;2023-03-01T05:17:15;3.50;;;1.88;;
39410;SDS011;26579;43.238;23.124;2023-03-01T05:19:40;3.05;;;1.60;;
39410;SDS011;26579;43.238;23.124;2023-03-01T05:22:06;3.47;;;2.03;;
39410;SDS011;26579;43.238;23.124;2023-03-01T05:24:34;3.72;;;2.05;;
39410;SDS011;26579;43.238;23.124;2023-03-01T05:27:01;2.78;;;1.73;;
39410;SDS011;26579;43.238;23.124;2023-03-01T05:29:27;3.30;;;1.90;;
39410;SDS011;26579;43.238;23.124;2023-03-01T05:31:56;2.85;;;1.90;;
39410;SDS011;26579;43.238;23.124;2023-03-01T05:34:24;3.67;;;1.98;;
39410;SDS011;26579;43.238;23.124;2023-03-01T05:36:52;3.30;;;1.80;;
39410;SDS011;26579;43.238;23.124;2023-03-01T05:39:22;3.97;;;1.45;;
39410;SDS011;26579;43.238;23.124;2023-03-01T05:41:53;3.42;;;1.80;;
39410;SDS011;26579;43.238;23.124;2023-03-01T05:44:23;3.50;;;2.38;;
39410;SDS011;26579;43.238;23.124;2023-03-01T05:46:50;3.17;;;2.10;;
39410;SDS011;26579;43.238;23.124;2023-03-01T05:49:16;2.53;;;1.65;;
39410;SDS011;26579;43.238;23.124;2023-03-01T05:51:43;3.45;;;2.10;;
39410;SDS011;26579;43.238;23.124;2023-03-01T05:54:13;3.72;;;2.13;;
39410;SDS011;26579;43.238;23.124;2023-03-01T05:56:39;4.50;;;2.53;;
39410;SDS011;26579;43.238;23.124;2023-03-01T05:59:05;3.95;;;2.30;;
39410;SDS011;26579;43.238;23.124;2023-03-01T06:01:31;6.63;;;2.50;;
39410;SDS011;26579;43.238;23.124;2023-03-01T06:03:58;5.00;;;2.90;;
39410;SDS011;26579;43.238;23.124;2023-03-01T06:06:24;4.82;;;2.78;;
39410;SDS011;26579;43.238;23.124;2023-03-01T06:08:50;7.65;;;5.15;;
39410;SDS011;26579;43.238;23.124;2023-03-01T06:11:18;5.97;;;3.78;;
39410;SDS011;26579;43.238;23.124;2023-03-01T06:13:44;3.90;;;2.28;;
39410;SDS011;26579;43.238;23.124;2023-03-01T06:16:11;4.43;;;3.17;;
39410;SDS011;26579;43.238;23.124;2023-03-01T06:18:37;5.18;;;3.30;;
39410;SDS011;26579;43.238;23.124;2023-03-01T06:21:04;4.90;;;2.53;;
39410;SDS011;26579;43.238;23.124;2023-03-01T06:23:31;4.05;;;2.13;;
39410;SDS011;26579;43.238;23.124;2023-03-01T06:25:57;5.35;;;2.88;;
39410;SDS011;26579;43.238;23.124;2023-03-01T06:28:23;7.78;;;4.43;;
39410;SDS011;26579;43.238;23.124;2023-03-01T06:30:52;7.25;;;4.30;;
39410;SDS011;26579;43.238;23.124;2023-03-01T06:33:18;6.18;;;2.97;;
39410;SDS011;26579;43.238;23.124;2023-03-01T06:35:44;8.00;;;3.92;;
39410;SDS011;26579;43.238;23.124;2023-03-01T06:38:10;5.28;;;3.05;;
39410;SDS011;26579;43.238;23.124;2023-03-01T06:40:36;5.70;;;3.08;;
39410;SDS011;26579;43.238;23.124;2023-03-01T06:43:01;5.00;;;2.85;;
39410;SDS011;26579;43.238;23.124;2023-03-01T06:45:27;5.43;;;3.35;;
39410;SDS011;26579;43.238;23.124;2023-03-01T06:48:00;4.82;;;2.92;;
39410;SDS011;26579;43.238;23.124;2023-03-01T06:50:27;5.47;;;3.30;;
39410;SDS011;26579;43.238;23.124;2023-03-01T06:52:55;7.15;;;3.55;;
39410;SDS011;26579;43.238;23.124;2023-03-01T06:55:21;18.65;;;6.32;;
39410;SDS011;26579;43.238;23.124;2023-03-01T06:57:47;14.68;;;7.63;;
39410;SDS011;26579;43.238;23.124;2023-03-01T07:00:13;24.42;;;10.70;;
39410;SDS011;26579;43.238;23.124;2023-03-01T07:02:39;37.13;;;14.70;;
39410;SDS011;26579;43.238;23.124;2023-03-01T07:05:04;27.67;;;10.43;;
39410;SDS011;26579;43.238;23.124;2023-03-01T07:07:30;11.07;;;5.35;;
39410;SDS011;26579;43.238;23.124;2023-03-01T07:09:56;6.78;;;3.65;;
39410;SDS011;26579;43.238;23.124;2023-03-01T07:12:22;6.30;;;3.47;;
39410;SDS011;26579;43.238;23.124;2023-03-01T07:14:47;6.15;;;4.03;;
39410;SDS011;26579;43.238;23.124;2023-03-01T07:17:13;4.85;;;2.70;;
39410;SDS011;26579;43.238;23.124;2023-03-01T07:19:39;33.47;;;23.45;;
39410;SDS011;26579;43.238;23.124;2023-03-01T07:22:04;21.77;;;10.18;;
39410;SDS011;26579;43.238;23.124;2023-03-01T07:24:30;26.38;;;12.23;;
39410;SDS011;26579;43.238;23.124;2023-03-01T07:26:56;15.30;;;9.27;;
39410;SDS011;26579;43.238;23.124;2023-03-01T07:29:21;14.30;;;8.00;;
39410;SDS011;26579;43.238;23.124;2023-03-01T07:31:47;16.70;;;8.00;;
39410;SDS011;26579;43.238;23.124;2023-03-01T07:34:13;33.25;;;15.50;;
39410;SDS011;26579;43.238;23.124;2023-03-01T07:36:38;21.27;;;10.60;;
39410;SDS011;26579;43.238;23.124;2023-03-01T07:39:04;20.60;;;10.88;;
39410;SDS011;26579;43.238;23.124;2023-03-01T07:41:30;12.48;;;7.78;;
39410;SDS011;26579;43.238;23.124;2023-03-01T07:43:56;30.13;;;20.52;;
39410;SDS011;26579;43.238;23.124;2023-03-01T07:46:21;26.80;;;21.55;;
39410;SDS011;26579;43.238;23.124;2023-03-01T07:48:47;26.00;;;16.10;;
39410;SDS011;26579;43.238;23.124;2023-03-01T07:51:13;12.63;;;7.28;;
39410;SDS011;26579;43.238;23.124;2023-03-01T07:53:38;8.13;;;4.38;;
39410;SDS011;26579;43.238;23.124;2023-03-01T07:56:05;9.55;;;4.68;;
39410;SDS011;26579;43.238;23.124;2023-03-01T07:58:36;10.68;;;6.22;;
39410;SDS011;26579;43.238;23.124;2023-03-01T08:01:03;8.18;;;4.45;;
39410;SDS011;26579;43.238;23.124;2023-03-01T08:03:30;12.20;;;7.43;;
39410;SDS011;26579;43.238;23.124;2023-03-01T08:05:59;8.70;;;5.82;;
39410;SDS011;26579;43.238;23.124;2023-03-01T08:08:25;10.98;;;5.63;;
39410;SDS011;26579;43.238;23.124;2023-03-01T08:10:51;6.72;;;3.78;;
39410;SDS011;26579;43.238;23.124;2023-03-01T08:13:17;6.70;;;2.95;;
39410;SDS011;26579;43.238;23.124;2023-03-01T08:15:42;5.00;;;2.70;;
39410;SDS011;26579;43.238;23.124;2023-03-01T08:18:08;5.45;;;3.20;;
39410;SDS011;26579;43.238;23.124;2023-03-01T08:20:34;8.30;;;5.10;;
39410;SDS011;26579;43.238;23.124;2023-03-01T08:23:00;6.10;;;3.72;;
39410;SDS011;26579;43.238;23.124;2023-03-01T08:25:25;6.45;;;3.60;;
39410;SDS011;26579;43.238;23.124;2023-03-01T08:27:51;6.22;;;3.65;;
39410;SDS011;26579;43.238;23.124;2023-03-01T08:30:17;6.20;;;3.42;;
39410;SDS011;26579;43.238;23.124;2023-03-01T08:32:42;5.97;;;2.90;;
39410;SDS011;26579;43.238;23.124;2023-03-01T08:35:08;6.65;;;4.22;;
39410;SDS011;26579;43.238;23.124;2023-03-01T08:37:34;6.85;;;3.20;;
39410;SDS011;26579;43.238;23.124;2023-03-01T08:39:59;11.52;;;5.68;;
39410;SDS011;26579;43.238;23.124;2023-03-01T08:42:26;9.65;;;4.85;;
39410;SDS011;26579;43.238;23.124;2023-03-01T08:44:52;9.20;;;5.45;;
39410;SDS011;26579;43.238;23.124;2023-03-01T08:47:17;11.35;;;6.45;;
39410;SDS011;26579;43.238;23.124;2023-03-01T08:49:43;12.23;;;6.85;;
39410;SDS011;26579;43.238;23.124;2023-03-01T08:52:09;8.90;;;5.30;;
39410;SDS011;26579;43.238;23.124;2023-03-01T08:54:34;10.23;;;6.88;;
39410;SDS011;26579;43.238;23.124;2023-03-01T08:57:03;35.15;;;18.92;;
39410;SDS011;26579;43.238;23.124;2023-03-01T08:59:29;23.80;;;11.73;;
39410;SDS011;26579;43.238;23.124;2023-03-01T09:01:54;16.65;;;9.40;;
39410;SDS011;26579;43.238;23.124;2023-03-01T09:04:20;14.20;;;8.32;;
39410;SDS011;26579;43.238;23.124;2023-03-01T09:06:47;9.68;;;5.68;;
39410;SDS011;26579;43.238;23.124;2023-03-01T09:09:13;9.05;;;5.60;;
39410;SDS011;26579;43.238;23.124;2023-03-01T09:11:40;12.98;;;6.80;;
39410;SDS011;26579;43.238;23.124;2023-03-01T09:14:06;8.52;;;5.35;;
39410;SDS011;26579;43.238;23.124;2023-03-01T09:16:32;14.13;;;7.18;;
39410;SDS011;26579;43.238;23.124;2023-03-01T09:18:57;10.63;;;6.70;;
39410;SDS011;26579;43.238;23.124;2023-03-01T09:21:23;9.38;;;5.97;;
39410;SDS011;26579;43.238;23.124;2023-03-01T09:23:49;8.73;;;5.18;;
39410;SDS011;26579;43.238;23.124;2023-03-01T09:26:15;9.07;;;5.00;;
39410;SDS011;26579;43.238;23.124;2023-03-01T09:28:46;12.93;;;8.80;;
39410;SDS011;26579;43.238;23.124;2023-03-01T09:31:13;12.38;;;8.55;;
39410;SDS011;26579;43.238;23.124;2023-03-01T09:33:39;10.88;;;7.07;;
39410;SDS011;26579;43.238;23.124;2023-03-01T09:36:07;16.02;;;9.32;;
39410;SDS011;26579;43.238;23.124;2023-03-01T09:38:36;10.27;;;6.03;;
39410;SDS011;26579;43.238;23.124;2023-03-01T09:41:02;10.18;;;6.05;;
39410;SDS011;26579;43.238;23.124;2023-03-01T09:46:13;12.45;;;7.50;;
39410;SDS011;26579;43.238;23.124;2023-03-01T09:48:45;8.75;;;6.03;;
39410;SDS011;26579;43.238;23.124;2023-03-01T09:51:52;5.68;;;3.65;;
39410;SDS011;26579;43.238;23.124;2023-03-01T09:54:08;11.48;;;7.35;;
39410;SDS011;26579;43.238;23.124;2023-03-01T10:09:43;7.95;;;4.57;;
39410;SDS011;26579;43.238;23.124;2023-03-01T10:12:20;7.80;;;5.10;;
39410;SDS011;26579;43.238;23.124;2023-03-01T10:20:24;6.18;;;4.65;;
39410;SDS011;26579;43.238;23.124;2023-03-01T10:22:51;8.98;;;4.75;;
39410;SDS011;26579;43.238;23.124;2023-03-01T10:26:04;8.10;;;4.18;;
39410;SDS011;26579;43.238;23.124;2023-03-01T10:28:16;5.05;;;3.00;;
39410;SDS011;26579;43.238;23.124;2023-03-01T10:30:50;7.07;;;4.43;;
39410;SDS011;26579;43.238;23.124;2023-03-01T10:35:50;8.48;;;5.95;;
39410;SDS011;26579;43.238;23.124;2023-03-01T10:38:17;12.40;;;7.28;;
39410;SDS011;26579;43.238;23.124;2023-03-01T10:40:52;6.90;;;4.05;;
39410;SDS011;26579;43.238;23.124;2023-03-01T10:43:18;10.57;;;4.85;;
39410;SDS011;26579;43.238;23.124;2023-03-01T10:45:44;10.10;;;6.60;;
39410;SDS011;26579;43.238;23.124;2023-03-01T10:50:42;13.15;;;7.72;;
39410;SDS011;26579;43.238;23.124;2023-03-01T10:55:57;7.00;;;4.72;;
39410;SDS011;26579;43.238;23.124;2023-03-01T10:58:25;5.47;;;3.50;;
39410;SDS011;26579;43.238;23.124;2023-03-01T11:03:18;18.33;;;10.55;;
39410;SDS011;26579;43.238;23.124;2023-03-01T11:05:51;14.40;;;9.23;;
39410;SDS011;26579;43.238;23.124;2023-03-01T11:08:30;12.13;;;8.40;;
39410;SDS011;26579;43.238;23.124;2023-03-01T11:13:54;11.77;;;7.40;;
39410;SDS011;26579;43.238;23.124;2023-03-01T11:16:24;14.57;;;7.70;;
39410;SDS011;26579;43.238;23.124;2023-03-01T11:19:18;11.35;;;7.00;;
39410;SDS011;26579;43.238;23.124;2023-03-01T11:21:54;10.32;;;6.15;;
39410;SDS011;26579;43.238;23.124;2023-03-01T11:26:53;9.73;;;6.53;;
39410;SDS011;26579;43.238;23.124;2023-03-01T11:32:05;12.75;;;6.28;;
39410;SDS011;26579;43.238;23.124;2023-03-01T11:34:47;15.10;;;7.35;;
39410;SDS011;26579;43.238;23.124;2023-03-01T11:40:13;17.10;;;8.20;;
39410;SDS011;26579;43.238;23.124;2023-03-01T11:45:23;27.67;;;11.65;;
39410;SDS011;26579;43.238;23.124;2023-03-01T11:47:58;11.68;;;6.78;;
39410;SDS011;26579;43.238;23.124;2023-03-01T12:12:56;18.42;;;10.40;;
39410;SDS011;26579;43.238;23.124;2023-03-01T12:30:29;6.38;;;3.65;;
39410;SDS011;26579;43.238;23.124;2023-03-01T12:33:29;5.45;;;3.08;;
39410;SDS011;26579;43.238;23.124;2023-03-01T12:41:47;6.53;;;3.50;;
39410;SDS011;26579;43.238;23.124;2023-03-01T12:45:14;6.93;;;4.15;;
39410;SDS011;26579;43.238;23.124;2023-03-01T12:50:42;9.82;;;5.95;;
39410;SDS011;26579;43.238;23.124;2023-03-01T12:53:19;6.82;;;4.32;;
39410;SDS011;26579;43.238;23.124;2023-03-01T12:55:52;9.52;;;4.68;;
39410;SDS011;26579;43.238;23.124;2023-03-01T13:01:24;9.68;;;6.03;;
39410;SDS011;26579;43.238;23.124;2023-03-01T13:04:18;10.20;;;7.25;;
39410;SDS011;26579;43.238;23.124;2023-03-01T13:06:58;7.45;;;4.47;;
39410;SDS011;26579;43.238;23.124;2023-03-01T13:17:52;5.20;;;3.10;;
39410;SDS011;26579;43.238;23.124;2023-03-01T13:25:33;8.13;;;5.00;;
39410;SDS011;26579;43.238;23.124;2023-03-01T13:30:59;7.93;;;4.70;;
39410;SDS011;26579;43.238;23.124;2023-03-01T13:35:54;7.47;;;4.20;;
39410;SDS011;26579;43.238;23.124;2023-03-01T13:41:16;9.98;;;5.18;;
39410;SDS011;26579;43.238;23.124;2023-03-01T13:43:43;7.78;;;5.15;;
39410;SDS011;26579;43.238;23.124;2023-03-01T13:46:16;9.93;;;6.53;;
39410;SDS011;26579;43.238;23.124;2023-03-01T13:48:47;6.45;;;3.97;;
39410;SDS011;26579;43.238;23.124;2023-03-01T13:51:15;6.88;;;4.03;;
39410;SDS011;26579;43.238;23.124;2023-03-01T13:53:46;7.68;;;4.43;;
39410;SDS011;26579;43.238;23.124;2023-03-01T13:56:55;7.78;;;4.28;;
39410;SDS011;26579;43.238;23.124;2023-03-01T13:59:03;7.60;;;4.50;;
39410;SDS011;26579;43.238;23.124;2023-03-01T14:01:32;12.77;;;7.55;;
39410;SDS011;26579;43.238;23.124;2023-03-01T14:04:00;10.57;;;5.97;;
39410;SDS011;26579;43.238;23.124;2023-03-01T14:06:31;12.52;;;7.50;;
39410;SDS011;26579;43.238;23.124;2023-03-01T14:09:05;12.98;;;8.50;;
39410;SDS011;26579;43.238;23.124;2023-03-01T14:14:13;16.17;;;11.20;;
39410;SDS011;26579;43.238;23.124;2023-03-01T14:19:54;13.82;;;7.90;;
39410;SDS011;26579;43.238;23.124;2023-03-01T14:22:24;16.20;;;9.15;;
39410;SDS011;26579;43.238;23.124;2023-03-01T14:24:55;14.68;;;8.98;;
39410;SDS011;26579;43.238;23.124;2023-03-01T14:27:25;13.05;;;7.68;;
39410;SDS011;26579;43.238;23.124;2023-03-01T14:29:55;20.65;;;13.23;;
39410;SDS011;26579;43.238;23.124;2023-03-01T14:32:26;20.30;;;12.85;;
39410;SDS011;26579;43.238;23.124;2023-03-01T14:34:54;20.95;;;12.15;;
39410;SDS011;26579;43.238;23.124;2023-03-01T14:37:26;18.13;;;10.95;;
39410;SDS011;26579;43.238;23.124;2023-03-01T14:39:55;18.63;;;11.75;;
39410;SDS011;26579;43.238;23.124;2023-03-01T14:42:23;17.80;;;11.15;;
39410;SDS011;26579;43.238;23.124;2023-03-01T14:44:53;13.50;;;8.73;;
39410;SDS011;26579;43.238;23.124;2023-03-01T14:47:26;14.45;;;8.45;;
39410;SDS011;26579;43.238;23.124;2023-03-01T14:49:59;30.33;;;19.38;;
39410;SDS011;26579;43.238;23.124;2023-03-01T14:52:36;22.15;;;12.40;;
39410;SDS011;26579;43.238;23.124;2023-03-01T14:55:13;15.98;;;10.65;;
39410;SDS011;26579;43.238;23.124;2023-03-01T14:57:42;16.98;;;11.27;;
39410;SDS011;26579;43.238;23.124;2023-03-01T15:00:10;14.90;;;7.85;;
39410;SDS011;26579;43.238;23.124;2023-03-01T15:02:42;17.60;;;9.98;;
39410;SDS011;26579;43.238;23.124;2023-03-01T15:05:09;18.38;;;9.90;;
39410;SDS011;26579;43.238;23.124;2023-03-01T15:07:38;19.63;;;12.20;;
39410;SDS011;26579;43.238;23.124;2023-03-01T15:10:06;29.98;;;17.77;;
39410;SDS011;26579;43.238;23.124;2023-03-01T15:12:40;15.70;;;9.20;;
39410;SDS011;26579;43.238;23.124;2023-03-01T15:15:19;21.17;;;10.90;;
39410;SDS011;26579;43.238;23.124;2023-03-01T15:17:52;13.23;;;7.88;;
39410;SDS011;26579;43.238;23.124;2023-03-01T15:20:20;10.13;;;6.60;;
39410;SDS011;26579;43.238;23.124;2023-03-01T15:22:48;22.20;;;11.40;;
39410;SDS011;26579;43.238;23.124;2023-03-01T15:25:15;11.98;;;7.28;;
39410;SDS011;26579;43.238;23.124;2023-03-01T15:27:46;11.43;;;7.90;;
39410;SDS011;26579;43.238;23.124;2023-03-01T15:30:17;11.35;;;7.57;;
39410;SDS011;26579;43.238;23.124;2023-03-01T15:32:48;12.73;;;6.75;;
39410;SDS011;26579;43.238;23.124;2023-03-01T15:35:43;8.60;;;4.97;;
39410;SDS011;26579;43.238;23.124;2023-03-01T15:40:58;46.80;;;20.25;;
39410;SDS011;26579;43.238;23.124;2023-03-01T15:46:18;14.23;;;8.48;;
39410;SDS011;26579;43.238;23.124;2023-03-01T15:48:46;9.98;;;6.22;;
39410;SDS011;26579;43.238;23.124;2023-03-01T15:51:14;10.70;;;5.95;;
39410;SDS011;26579;43.238;23.124;2023-03-01T15:53:40;10.82;;;6.20;;
39410;SDS011;26579;43.238;23.124;2023-03-01T15:56:07;11.02;;;6.60;;
39410;SDS011;26579;43.238;23.124;2023-03-01T15:58:33;11.00;;;6.05;;
39410;SDS011;26579;43.238;23.124;2023-03-01T16:00:59;11.50;;;5.97;;
39410;SDS011;26579;43.238;23.124;2023-03-01T16:03:25;13.55;;;7.78;;
39410;SDS011;26579;43.238;23.124;2023-03-01T16:05:51;14.35;;;7.28;;
39410;SDS011;26579;43.238;23.124;2023-03-01T16:08:17;13.35;;;7.32;;
39410;SDS011;26579;43.238;23.124;2023-03-01T16:10:43;9.85;;;5.43;;
39410;SDS011;26579;43.238;23.124;2023-03-01T16:13:11;13.80;;;7.97;;
39410;SDS011;26579;43.238;23.124;2023-03-01T16:15:37;22.02;;;12.18;;
39410;SDS011;26579;43.238;23.124;2023-03-01T16:18:03;20.67;;;12.23;;
39410;SDS011;26579;43.238;23.124;2023-03-01T16:20:30;23.45;;;15.93;;
39410;SDS011;26579;43.238;23.124;2023-03-01T16:22:59;15.88;;;9.52;;
39410;SDS011;26579;43.238;23.124;2023-03-01T16:25:33;20.73;;;10.80;;
39410;SDS011;26579;43.238;23.124;2023-03-01T16:28:01;23.05;;;8.43;;
39410;SDS011;26579;43.238;23.124;2023-03-01T16:30:27;10.48;;;6.20;;
39410;SDS011;26579;43.238;23.124;2023-03-01T16:32:53;14.20;;;7.57;;
39410;SDS011;26579;43.238;23.124;2023-03-01T16:35:20;10.05;;;6.20;;
39410;SDS011;26579;43.238;23.124;2023-03-01T16:37:46;17.30;;;8.82;;
39410;SDS011;26579;43.238;23.124;2023-03-01T16:40:17;17.92;;;7.25;;
39410;SDS011;26579;43.238;23.124;2023-03-01T16:45:13;20.60;;;10.75;;
39410;SDS011;26579;43.238;23.124;2023-03-01T16:47:39;38.78;;;21.70;;
39410;SDS011;26579;43.238;23.124;2023-03-01T16:50:05;13.80;;;8.15;;
39410;SDS011;26579;43.238;23.124;2023-03-01T16:52:31;10.73;;;6.35;;
39410;SDS011;26579;43.238;23.124;2023-03-01T16:54:58;11.85;;;7.63;;
39410;SDS011;26579;43.238;23.124;2023-03-01T16:57:24;10.70;;;6.28;;